Long Prairie, MN (56347)

18:10 CDT le 29 juin 2015 (GMT -0500)
Long Prairie | | Change Station
CLOSE
Current Station
Aéroport
Location: Long Prairie,
Altitude: 1332 ft
Stations météo à proximité

Alt. 1332 ft 45.90 °N, 94.87 °W | Updated 12 minutes ago

Ciel dégagé
Ciel dégagé
75 ° F
Paraît 75 ° F
N
10
Vent Variable Vent de ONO

Aujourd'hui
Haut(e) -- | Bas -- ° F
--% Risque de précip.
Hier
Haut(e) -- | Bas -- ° F
Precip. -- pouce
5:31 AM 9:14 PM
Lune gibbeuse croissante, 95% visible
Pression 29.83 pouce
Visibilité 10.0 Miles terrestres
Nuages Ciel dégagé
Point de rosée 63 ° F
Humidité 65%
Précipitations 0.00 pouce
Profondeur de la couche neigeuse Non disponible.
UV 3 sur 12
Pollen 5.00 sur 12
Qualité de l'air Non disponible.
Flu Activity Sporadic
METAR K14Y 292258Z AUTO 29009KT 10SM CLR 24/17 A2983 RMK AO2

More Conditions Fewer Conditions

Pression 29.83 pouce
Visibilité 10.0 Miles terrestres
Nuages Ciel dégagé
Point de rosée 63 ° F
Humidité 65%
Précipitations 0.00 pouce
Profondeur de la couche neigeuse Non disponible.
UV 3 sur 12
Pollen 5.00 sur 12
Qualité de l'air Non disponible.
Flu Activity Sporadic
METAR K14Y 292258Z AUTO 29009KT 10SM CLR 24/17 A2983 RMK AO2

More Conditions Fewer Conditions

10-Day Weather Forecast

×

Almanac

Astronomie

Jun. 29, 2015 Lever Coucher
Temps réel
Crépuscule civil
Crépuscule nautique
Crépuscule astronomique
Lune
Durée de lumière visible
Longueur du jour
Tomorrow will be .
, % of the Moon is Illuminated

Extrêmes aujourd'hui

State Highs State Lows

Community

WunderPhotos

Upload Photos

1,833,876 Photos téléchargées !

WunderBlogs® & News

Nearby

Qualité de l'air

  Qualité de l'air Indice de la qualité de l'air Polluant
Not available.

Épaisseur de neige

Station Depth Altitude

Activité sismique

Ville Distance Mag. Time & Date
Minimum magnitude displayed is 2.5.

Températures des eaux côtières

Lieu Température

Stations

Stations météo à proximité

Emplacement de la station Température Refroidissement éolien Point de rosée Humidité Vent Precip. Alt. Mise à jour Type